Time;durP1;ratioP1;P1;durP2;ratioP2;P2;SDS_P1;SDS_P2;PMS_P1;PMS_P2;Temp;Humidity;BMP_temperature;BMP_pressure;BME280_temperature;BME280_humidity;BME280_pressure;Samples;Min_cycle;Max_cycle;Signal;HPM_P1;HPM_P2
2023/07/30 00:02:18;;;;;;;3.25;1.77;;;;;;;26.52;49.86;99789.63;5092733;28;20055;-67
2023/07/30 00:04:47;;;;;;;3.10;2.00;;;;;;;26.52;50.30;99789.63;5092523;28;20060;-67
2023/07/30 00:07:15;;;;;;;3.97;1.95;;;;;;;26.51;50.24;99796.16;5092785;28;20357;-67
2023/07/30 00:09:45;;;;;;;3.13;1.80;;;;;;;26.50;50.38;99791.75;5092462;28;20459;-67
2023/07/30 00:12:14;;;;;;;3.65;2.00;;;;;;;26.48;50.12;99786.50;5092511;28;20528;-67
2023/07/30 00:14:43;;;;;;;3.92;2.00;;;;;;;26.48;50.17;99791.13;5092367;28;20080;-67
2023/07/30 00:17:11;;;;;;;3.72;2.00;;;;;;;26.47;50.53;99792.16;5092330;28;20040;-67
2023/07/30 00:19:40;;;;;;;3.67;1.65;;;;;;;26.46;50.57;99790.50;5092535;28;20048;-67
2023/07/30 00:22:08;;;;;;;3.03;1.90;;;;;;;26.46;50.62;99793.22;5092648;28;20055;-67
2023/07/30 00:24:36;;;;;;;3.72;2.00;;;;;;;26.45;50.82;99791.53;5092264;28;20135;-67
2023/07/30 00:27:07;;;;;;;4.68;2.30;;;;;;;26.44;50.53;99789.81;5092268;28;20095;-66
2023/07/30 00:29:35;;;;;;;4.38;2.10;;;;;;;26.43;50.93;99788.13;5092059;28;20048;-67
2023/07/30 00:32:03;;;;;;;4.70;2.60;;;;;;;26.43;50.19;99793.63;5092342;28;20234;-67
2023/07/30 00:34:31;;;;;;;4.03;2.03;;;;;;;26.42;50.43;99786.47;5092412;28;20048;-68
2023/07/30 00:36:59;;;;;;;4.50;2.22;;;;;;;26.41;50.05;99788.34;5092043;28;20044;-67
2023/07/30 00:39:28;;;;;;;4.07;2.30;;;;;;;26.40;49.91;99785.84;5092013;28;20043;-68
2023/07/30 00:41:56;;;;;;;3.92;2.03;;;;;;;26.39;50.23;99786.88;5091934;28;20131;-67
2023/07/30 00:44:26;;;;;;;4.38;2.17;;;;;;;26.35;49.55;99782.84;5091649;28;20052;-68
2023/07/30 00:46:54;;;;;;;4.22;2.00;;;;;;;26.33;49.72;99776.72;5092068;28;20052;-67
2023/07/30 00:49:22;;;;;;;3.72;2.00;;;;;;;26.32;49.40;99785.97;5091922;28;20451;-68
2023/07/30 00:51:51;;;;;;;3.40;1.75;;;;;;;26.28;49.28;99776.50;5091991;28;20044;-68
2023/07/30 00:54:19;;;;;;;3.80;2.00;;;;;;;26.26;49.53;99779.47;5091721;28;20439;-68
2023/07/30 00:56:53;;;;;;;3.80;1.75;;;;;;;26.24;49.53;99779.63;5091686;28;20489;-68
2023/07/30 00:59:22;;;;;;;3.80;1.83;;;;;;;26.21;49.11;99766.38;5091894;28;20051;-66
2023/07/30 01:01:52;;;;;;;2.78;1.60;;;;;;;26.23;49.22;99766.19;5091692;28;20048;-68
2023/07/30 01:04:21;;;;;;;3.50;1.77;;;;;;;26.22;49.04;99768.06;5091477;28;20559;-67
2023/07/30 01:06:49;;;;;;;2.92;1.52;;;;;;;26.21;49.56;99766.38;5091685;28;20075;-68
2023/07/30 01:09:17;;;;;;;3.83;1.85;;;;;;;26.22;49.23;99768.06;5091613;28;20094;-67
2023/07/30 01:11:46;;;;;;;2.95;1.45;;;;;;;26.22;49.54;99764.50;5091397;28;20056;-67
2023/07/30 01:14:18;;;;;;;4.15;1.90;;;;;;;26.22;49.67;99767.22;5091651;28;20051;-67
2023/07/30 01:16:47;;;;;;;3.28;1.83;;;;;;;26.22;49.69;99762.59;5091580;28;20059;-67
2023/07/30 01:19:16;;;;;;;3.17;1.80;;;;;;;26.22;49.75;99762.59;5091825;28;20093;-67
2023/07/30 01:21:46;;;;;;;3.92;1.90;;;;;;;26.22;49.45;99759.88;5091480;28;20040;-67
2023/07/30 01:24:14;;;;;;;3.88;1.83;;;;;;;26.21;49.80;99755.47;5091320;28;20366;-67
2023/07/30 01:26:46;;;;;;;4.07;1.92;;;;;;;26.21;49.49;99755.47;5091350;28;20489;-67
2023/07/30 01:29:18;;;;;;;4.38;1.98;;;;;;;26.20;49.57;99745.56;5091500;28;20048;-67
2023/07/30 01:31:56;;;;;;;2.63;1.73;;;;;;;26.21;49.40;99749.16;5092674;28;20044;-66
2023/07/30 01:34:28;;;;;;;3.25;1.85;;;;;;;26.21;49.86;99732.75;5095539;28;20207;-68
2023/07/30 01:36:59;;;;;;;3.43;1.80;;;;;;;26.19;49.84;99729.38;5095403;28;20052;-67
2023/07/30 01:39:28;;;;;;;2.70;1.67;;;;;;;26.18;49.75;99716.78;5095625;28;20048;-67
2023/07/30 01:41:57;;;;;;;3.08;1.75;;;;;;;26.16;49.76;99713.41;5095301;28;20044;-67
2023/07/30 01:44:25;;;;;;;2.75;1.65;;;;;;;26.17;50.00;99717.81;5095319;28;20044;-68
2023/07/30 01:46:54;;;;;;;2.83;1.80;;;;;;;26.14;49.81;99716.31;5095242;28;20493;-67
2023/07/30 01:49:22;;;;;;;3.60;1.90;;;;;;;26.16;50.11;99722.44;5095189;28;20123;-66
2023/07/30 01:51:50;;;;;;;3.45;1.98;;;;;;;26.16;50.25;99729.81;5095393;28;20048;-67
2023/07/30 01:54:20;;;;;;;3.17;1.90;;;;;;;26.15;50.24;99726.22;5095276;28;20055;-65
2023/07/30 01:56:48;;;;;;;3.92;2.00;;;;;;;26.14;50.26;99721.78;5095201;28;20052;-68
2023/07/30 01:59:16;;;;;;;3.83;1.88;;;;;;;26.14;50.15;99715.47;5094951;28;20500;-66
2023/07/30 02:01:45;;;;;;;2.90;1.80;;;;;;;26.13;50.20;99714.63;5095050;28;20044;-67
2023/07/30 02:04:13;;;;;;;3.70;1.88;;;;;;;26.12;50.38;99712.97;5095363;28;20120;-68
2023/07/30 02:06:41;;;;;;;3.47;2.05;;;;;;;26.11;50.28;99716.75;5095214;28;20040;-67
2023/07/30 02:09:10;;;;;;;3.88;2.10;;;;;;;26.10;50.30;99715.06;5094749;28;20083;-68
2023/07/30 02:11:40;;;;;;;4.22;2.05;;;;;;;26.10;50.62;99720.53;5094727;28;20052;-67
2023/07/30 02:14:10;;;;;;;3.50;1.98;;;;;;;26.08;50.35;99711.69;5095313;28;20059;-67
2023/07/30 02:16:38;;;;;;;3.38;1.85;;;;;;;26.08;50.77;99719.06;5094574;28;20052;-67
2023/07/30 02:19:06;;;;;;;3.95;1.70;;;;;;;26.07;50.66;99715.47;5094875;28;20440;-67
2023/07/30 02:21:36;;;;;;;3.60;1.95;;;;;;;26.06;50.78;99719.25;5094612;28;20111;-67
2023/07/30 02:24:09;;;;;;;3.75;2.00;;;;;;;26.05;50.43;99723.03;5094557;28;20058;-67
2023/07/30 02:26:40;;;;;;;3.30;1.70;;;;;;;26.05;50.63;99725.75;5094609;28;20089;-67
2023/07/30 02:29:08;;;;;;;3.75;1.90;;;;;;;26.06;50.78;99729.34;5094457;28;20151;-67
2023/07/30 02:31:36;;;;;;;2.70;1.70;;;;;;;26.04;50.78;99726.81;5094658;28;20127;-67
2023/07/30 02:34:06;;;;;;;2.65;1.52;;;;;;;26.04;50.77;99723.22;5094531;28;20117;-67
2023/07/30 02:36:35;;;;;;;3.97;2.00;;;;;;;26.02;50.85;99723.44;5094391;28;20485;-67
2023/07/30 02:39:03;;;;;;;3.42;1.80;;;;;;;26.03;50.87;99729.75;5094317;28;20412;-67
2023/07/30 02:41:32;;;;;;;3.65;1.98;;;;;;;26.02;50.60;99731.63;5094211;28;20048;-67
2023/07/30 02:44:01;;;;;;;3.63;1.83;;;;;;;26.01;50.82;99727.22;5092860;28;20048;-67
2023/07/30 02:46:30;;;;;;;3.22;1.92;;;;;;;26.01;50.81;99729.94;5094401;28;20048;-67
2023/07/30 02:48:58;;;;;;;3.40;2.08;;;;;;;26.01;51.01;99737.31;5094057;28;20086;-67
2023/07/30 02:51:26;;;;;;;3.35;1.92;;;;;;;25.99;50.76;99740.25;5094075;28;20044;-67
2023/07/30 02:53:59;;;;;;;3.55;1.83;;;;;;;26.00;50.82;99743.81;5094077;28;20044;-67
2023/07/30 02:56:27;;;;;;;3.42;2.13;;;;;;;25.98;50.77;99733.09;5094268;28;20048;-66
2023/07/30 02:58:55;;;;;;;3.30;2.00;;;;;;;26.00;50.82;99736.47;5094120;28;20048;-67
2023/07/30 03:01:25;;;;;;;2.83;1.90;;;;;;;25.97;51.04;99728.69;5094011;28;20044;-67
2023/07/30 03:03:54;;;;;;;4.18;2.38;;;;;;;25.98;51.10;99741.31;5093827;28;20043;-67
2023/07/30 03:06:22;;;;;;;4.03;2.00;;;;;;;25.96;50.92;99736.06;5093636;28;20052;-67
2023/07/30 03:08:50;;;;;;;3.80;1.95;;;;;;;25.96;51.25;99736.06;5092218;28;20443;-66
2023/07/30 03:11:19;;;;;;;4.15;2.30;;;;;;;25.95;51.07;99731.59;5091744;28;20485;-67
2023/07/30 03:13:47;;;;;;;3.33;2.15;;;;;;;25.96;51.04;99729.72;5092636;28;20097;-67
2023/07/30 03:16:15;;;;;;;4.00;1.85;;;;;;;25.93;51.42;99727.41;5093452;28;20051;-67
2023/07/30 03:18:47;;;;;;;3.78;2.25;;;;;;;25.93;51.33;99722.78;5093698;28;20076;-67
2023/07/30 03:21:15;;;;;;;5.10;2.03;;;;;;;25.93;51.38;99730.13;5075484;28;20067;-67
2023/07/30 03:23:44;;;;;;;4.15;2.15;;;;;;;25.93;51.37;99730.13;5093623;28;20048;-66
2023/07/30 03:26:13;;;;;;;3.10;2.15;;;;;;;25.92;51.11;99734.75;5093296;28;20047;-67
2023/07/30 03:28:42;;;;;;;3.38;1.98;;;;;;;25.91;51.53;99726.75;5093396;28;20048;-67
2023/07/30 03:31:10;;;;;;;4.43;2.03;;;;;;;25.91;51.16;99735.81;5093164;28;20133;-67
2023/07/30 03:33:43;;;;;;;3.25;1.80;;;;;;;25.90;51.57;99731.38;5093195;28;20040;-67
2023/07/30 03:36:14;;;;;;;;;;;;;;;25.90;51.40;99738.75;5093873;28;20105;-67
2023/07/30 03:38:47;;;;;;;3.70;2.13;;;;;;;25.89;51.76;99742.53;5093439;28;19923;-66
2023/07/30 03:41:15;;;;;;;3.33;2.10;;;;;;;25.88;51.42;99738.13;5108853;28;20081;-67
2023/07/30 03:43:43;;;;;;;4.53;2.00;;;;;;;25.89;51.74;99742.53;5093121;28;20040;-67
2023/07/30 03:46:11;;;;;;;3.63;2.22;;;;;;;25.88;51.58;99743.56;5092812;28;20052;-67
2023/07/30 03:48:40;;;;;;;4.55;1.90;;;;;;;25.88;52.09;99749.88;5092889;28;20052;-66
2023/07/30 03:51:08;;;;;;;3.88;2.00;;;;;;;25.87;51.87;99744.63;5092856;28;20048;-67
2023/07/30 03:53:38;;;;;;;4.18;2.30;;;;;;;25.86;52.11;99742.91;5092992;28;20044;-67
2023/07/30 03:56:06;;;;;;;3.67;2.00;;;;;;;25.85;51.83;99743.97;5092511;28;20040;-67
2023/07/30 03:58:36;;;;;;;3.97;2.22;;;;;;;25.86;51.80;99742.91;5092697;28;20048;-67
2023/07/30 04:01:06;;;;;;;2.97;1.90;;;;;;;25.86;52.18;99745.66;5092589;28;20044;-67
2023/07/30 04:03:35;;;;;;;3.92;2.20;;;;;;;25.84;52.08;99755.94;5092875;28;20047;-67
2023/07/30 04:06:04;;;;;;;5.15;2.30;;;;;;;25.84;51.87;99756.78;5092693;28;20488;-67
2023/07/30 04:08:33;;;;;;;3.50;2.00;;;;;;;25.82;52.02;99756.16;5092541;28;20047;-67
2023/07/30 04:11:02;;;;;;;3.58;2.10;;;;;;;25.83;51.78;99763.28;5092457;28;20044;-67
2023/07/30 04:13:30;;;;;;;3.70;2.10;;;;;;;25.83;52.21;99763.28;5092430;28;20051;-66
2023/07/30 04:15:59;;;;;;;4.22;2.25;;;;;;;25.83;52.21;99767.91;5092598;28;20044;-68
2023/07/30 04:18:27;;;;;;;3.55;2.28;;;;;;;25.82;52.10;99766.22;5092517;28;20055;-67
2023/07/30 04:20:56;;;;;;;5.05;2.28;;;;;;;25.81;52.31;99761.81;5092314;28;20568;-67
2023/07/30 04:23:24;;;;;;;3.40;2.05;;;;;;;25.81;52.42;99767.28;5092424;28;20064;-66
2023/07/30 04:25:52;;;;;;;3.55;2.00;;;;;;;25.81;52.28;99767.28;5092051;28;20047;-66
2023/07/30 04:28:22;;;;;;;3.15;2.10;;;;;;;25.81;52.40;99770.84;5092132;28;20044;-66
2023/07/30 04:30:51;;;;;;;4.63;2.25;;;;;;;25.81;52.62;99772.75;5092330;28;20056;-67
2023/07/30 04:33:22;;;;;;;3.58;2.00;;;;;;;25.80;52.70;99768.34;5092223;28;20040;-67
2023/07/30 04:35:50;;;;;;;4.05;2.28;;;;;;;25.81;52.63;99767.28;5092183;28;20100;-67
2023/07/30 04:38:19;;;;;;;5.40;2.40;;;;;;;25.81;52.85;99772.75;5092119;28;20047;-66
2023/07/30 04:40:47;;;;;;;3.80;2.30;;;;;;;25.78;52.47;99764.97;5092106;28;20546;-67
2023/07/30 04:43:17;;;;;;;3.55;2.17;;;;;;;25.80;52.67;99774.63;5092258;28;20075;-68
2023/07/30 04:45:47;;;;;;;3.63;2.10;;;;;;;25.80;52.83;99771.91;5092068;28;20048;-68
2023/07/30 04:48:15;;;;;;;4.53;2.33;;;;;;;25.80;52.88;99773.78;5092044;28;20047;-68
2023/07/30 04:50:43;;;;;;;3.88;1.90;;;;;;;25.79;52.59;99766.66;5091843;28;20094;-67
2023/07/30 04:53:16;;;;;;;4.00;2.17;;;;;;;25.79;52.69;99769.38;5091686;28;20059;-68
2023/07/30 04:55:44;;;;;;;4.60;2.10;;;;;;;25.80;52.61;99768.34;5091973;28;20055;-67
2023/07/30 04:58:12;;;;;;;3.70;1.90;;;;;;;25.78;52.72;99771.28;5091620;28;20094;-67
2023/07/30 05:00:40;;;;;;;4.15;2.20;;;;;;;25.79;52.58;99774.84;5091611;28;20083;-67
2023/07/30 05:03:11;;;;;;;4.00;2.22;;;;;;;25.78;52.44;99775.88;5091621;28;20044;-67
2023/07/30 05:05:39;;;;;;;5.15;2.20;;;;;;;25.77;52.67;99780.50;5091233;28;20052;-67
2023/07/30 05:08:08;;;;;;;4.57;2.20;;;;;;;25.76;52.51;99778.78;5091209;28;20485;-67
2023/07/30 05:10:36;;;;;;;3.20;1.98;;;;;;;25.77;52.68;99783.25;5091404;28;20140;-67
2023/07/30 05:13:04;;;;;;;3.72;2.15;;;;;;;25.77;52.68;99787.84;5091662;28;20044;-67
2023/07/30 05:15:32;;;;;;;3.35;2.00;;;;;;;25.76;52.51;99783.41;5073723;28;20044;-67
2023/07/30 05:18:01;;;;;;;3.00;2.10;;;;;;;25.74;52.75;99780.06;5091510;28;20043;-67
2023/07/30 05:20:30;;;;;;;3.70;2.05;;;;;;;25.75;52.56;99779.84;5091345;28;20056;-67
2023/07/30 05:22:59;;;;;;;3.22;1.95;;;;;;;25.76;52.67;99783.41;5091635;28;20473;-67
2023/07/30 05:25:31;;;;;;;3.47;2.00;;;;;;;25.76;53.09;99786.16;5091271;28;20489;-67
2023/07/30 05:28:02;;;;;;;3.55;2.00;;;;;;;25.75;52.73;99779.84;5091425;28;20063;-67
2023/07/30 05:30:30;;;;;;;3.45;2.00;;;;;;;25.76;53.11;99781.53;5091426;28;20044;-66
2023/07/30 05:32:58;;;;;;;4.03;2.30;;;;;;;25.76;52.75;99787.00;5091109;28;20048;-67
2023/07/30 05:35:27;;;;;;;3.47;2.17;;;;;;;25.76;53.12;99791.63;5073768;28;20127;-67
2023/07/30 05:37:59;;;;;;;3.17;1.95;;;;;;;25.77;52.88;99785.09;5091258;28;20048;-67
2023/07/30 05:40:27;;;;;;;3.38;2.00;;;;;;;25.77;53.01;99785.97;5091388;28;20135;-67
2023/07/30 05:42:56;;;;;;;4.05;2.20;;;;;;;25.78;53.26;99784.09;5091250;28;20044;-67
2023/07/30 05:45:24;;;;;;;2.92;2.00;;;;;;;25.78;53.10;99781.34;5091210;28;20044;-65
2023/07/30 05:47:52;;;;;;;4.45;2.22;;;;;;;25.78;52.99;99770.44;5091337;28;20139;-67
2023/07/30 05:50:20;;;;;;;3.30;1.98;;;;;;;25.79;53.33;99780.31;5091138;28;20041;-68
2023/07/30 05:52:48;;;;;;;6.05;2.40;;;;;;;25.78;53.19;99782.19;5091198;28;20080;-68
2023/07/30 05:55:18;;;;;;;3.33;2.00;;;;;;;25.79;53.10;99777.56;5091314;28;20074;-68
2023/07/30 05:57:46;;;;;;;3.92;2.05;;;;;;;25.79;53.46;99778.41;5091153;28;20048;-66
2023/07/30 06:00:17;;;;;;;3.92;2.28;;;;;;;25.79;53.59;99781.16;5091015;28;20052;-66
2023/07/30 06:02:45;;;;;;;4.38;2.20;;;;;;;25.80;53.29;99790.19;5091292;28;20451;-68
2023/07/30 06:05:14;;;;;;;4.45;2.55;;;;;;;25.80;53.34;99782.00;5090964;28;20517;-67
2023/07/30 06:07:42;;;;;;;3.85;2.53;;;;;;;25.81;53.43;99791.88;5090935;28;20048;-67
2023/07/30 06:10:10;;;;;;;3.97;2.40;;;;;;;25.81;53.44;99786.41;5090983;28;20052;-67
2023/07/30 06:12:40;;;;;;;3.90;2.25;;;;;;;25.81;53.78;99786.41;5090899;28;20044;-68
2023/07/30 06:15:10;;;;;;;3.53;2.10;;;;;;;25.80;53.57;99791.03;5090978;28;20048;-67
2023/07/30 06:17:39;;;;;;;4.15;2.03;;;;;;;25.83;53.83;99789.78;5091911;28;20059;-67
2023/07/30 06:20:09;;;;;;;3.30;2.00;;;;;;;25.83;53.75;99787.03;5094678;28;20040;-67
2023/07/30 06:22:37;;;;;;;4.25;2.30;;;;;;;25.83;53.85;99782.41;5094639;28;20046;-66
2023/07/30 06:25:06;;;;;;;4.32;2.17;;;;;;;25.83;53.96;99785.16;5094561;28;20052;-67
2023/07/30 06:27:34;;;;;;;4.70;2.20;;;;;;;25.85;53.51;99782.22;5094626;28;20054;-67
2023/07/30 06:30:09;;;;;;;3.60;2.45;;;;;;;25.84;53.95;99780.53;5094595;28;20411;-67
2023/07/30 06:32:39;;;;;;;4.47;2.55;;;;;;;25.84;53.69;99775.91;5094161;28;20050;-67
2023/07/30 06:35:08;;;;;;;5.22;2.72;;;;;;;25.86;53.77;99784.72;5094345;28;20425;-67
2023/07/30 06:37:37;;;;;;;5.88;3.05;;;;;;;25.86;53.67;99784.72;5094147;28;20052;-67
2023/07/30 06:40:06;;;;;;;4.47;2.80;;;;;;;25.87;53.61;99785.59;5094213;28;20052;-66
2023/07/30 06:42:35;;;;;;;5.13;3.00;;;;;;;25.88;54.15;99784.56;5094423;28;20046;-68
2023/07/30 06:45:05;;;;;;;6.10;3.22;;;;;;;25.88;53.75;99792.75;5094296;28;20048;-66
2023/07/30 06:47:34;;;;;;;4.45;2.65;;;;;;;25.91;53.98;99784.97;5094052;28;20048;-67
2023/07/30 06:50:08;;;;;;;4.03;2.60;;;;;;;25.91;53.77;99782.25;5094195;28;20128;-65
2023/07/30 06:52:36;;;;;;;;;;;;;;;25.92;53.77;99778.47;5094441;28;20051;-67
2023/07/30 06:55:08;;;;;;;4.15;2.60;;;;;;;25.94;54.07;99790.03;5094190;28;19927;-66
2023/07/30 06:57:37;;;;;;;4.00;2.35;;;;;;;25.94;53.89;99783.72;5094104;28;20051;-66
2023/07/30 07:00:18;;;;;;;4.35;2.50;;;;;;;25.95;53.51;99777.22;5093966;28;20044;-68
2023/07/30 07:02:47;;;;;;;4.55;2.80;;;;;;;25.95;53.88;99778.06;5093776;28;20225;-68
2023/07/30 07:05:16;;;;;;;3.97;2.50;;;;;;;25.97;53.94;99777.88;5093716;28;20056;-68
2023/07/30 07:07:44;;;;;;;3.90;2.60;;;;;;;25.97;53.61;99777.88;5107722;28;20611;-68
2023/07/30 07:10:13;;;;;;;4.32;2.53;;;;;;;25.96;53.79;99771.56;5114181;28;20079;-68
2023/07/30 07:12:41;;;;;;;3.60;2.40;;;;;;;25.96;53.61;99778.91;5114084;28;20583;-68
2023/07/30 07:15:11;;;;;;;3.60;2.35;;;;;;;25.97;53.60;99791.53;5113898;28;20055;-68
2023/07/30 07:17:40;;;;;;;4.43;2.70;;;;;;;25.99;53.73;99797.63;5113917;28;20075;-67
2023/07/30 07:20:10;;;;;;;4.10;2.50;;;;;;;25.99;53.64;99807.72;5096146;28;20083;-69
2023/07/30 07:22:39;;;;;;;3.95;2.25;;;;;;;25.98;53.59;99815.09;5113964;28;20122;-66
2023/07/30 07:25:08;;;;;;;3.78;2.17;;;;;;;25.99;53.64;99822.22;5114038;28;20361;-67
2023/07/30 07:27:36;;;;;;;3.40;2.28;;;;;;;26.00;53.31;99829.38;5113823;28;20044;-66
2023/07/30 07:30:04;;;;;;;4.00;2.13;;;;;;;26.01;53.64;99830.22;5113028;28;20124;-65
2023/07/30 07:32:37;;;;;;;3.92;2.10;;;;;;;26.01;53.64;99831.06;5113816;28;20043;-67
2023/07/30 07:35:07;;;;;;;3.60;2.20;;;;;;;26.02;53.39;99843.69;5113757;28;20048;-66
2023/07/30 07:37:35;;;;;;;3.38;2.08;;;;;;;26.01;53.58;99847.47;5113626;28;20044;-67
2023/07/30 07:40:04;;;;;;;3.17;2.03;;;;;;;26.02;53.28;99848.28;5113837;28;20047;-66
2023/07/30 07:42:32;;;;;;;5.10;2.17;;;;;;;26.02;53.71;99851.88;5113367;28;20124;-65
2023/07/30 07:45:01;;;;;;;3.42;2.20;;;;;;;26.03;53.75;99849.97;5113638;28;20055;-66
2023/07/30 07:47:29;;;;;;;3.67;2.28;;;;;;;26.03;53.76;99845.34;5113356;28;20142;-66
2023/07/30 07:49:59;;;;;;;3.28;2.08;;;;;;;26.03;53.95;99842.63;5113424;28;20050;-65
2023/07/30 07:52:28;;;;;;;3.85;2.10;;;;;;;26.01;54.41;99847.47;5113321;28;20048;-65
2023/07/30 07:54:56;;;;;;;4.10;2.33;;;;;;;26.02;54.77;99849.13;5113223;28;20051;-66
2023/07/30 07:57:25;;;;;;;3.10;2.13;;;;;;;26.03;55.27;99856.28;5113145;28;20103;-66
2023/07/30 07:59:53;;;;;;;5.07;2.35;;;;;;;26.03;55.72;99856.28;5113287;28;20066;-66
2023/07/30 08:02:21;;;;;;;4.07;2.40;;;;;;;26.03;56.13;99852.72;5113312;28;20047;-66
2023/07/30 08:04:50;;;;;;;3.80;2.40;;;;;;;26.02;56.08;99860.06;5113042;28;20096;-65
2023/07/30 08:07:19;;;;;;;3.85;2.08;;;;;;;26.01;55.97;99863.84;5112920;28;20436;-65
2023/07/30 08:09:47;;;;;;;4.55;2.80;;;;;;;26.01;56.00;99874.78;5112644;28;20044;-66
2023/07/30 08:12:15;;;;;;;3.55;2.28;;;;;;;26.00;56.00;99873.09;5113031;28;20051;-67
2023/07/30 08:14:44;;;;;;;4.65;2.28;;;;;;;25.97;56.37;99873.50;5112796;28;20123;-66
2023/07/30 08:17:15;;;;;;;3.33;2.05;;;;;;;25.96;56.18;99882.72;5112895;28;20078;-66
2023/07/30 08:19:43;;;;;;;4.35;1.95;;;;;;;25.96;56.45;99877.25;5112623;28;20504;-66
2023/07/30 08:22:11;;;;;;;3.88;2.25;;;;;;;25.95;56.86;99878.31;5112559;28;20079;-67
2023/07/30 08:24:40;;;;;;;4.50;2.25;;;;;;;25.95;56.42;99881.03;5112891;28;20071;-65
2023/07/30 08:27:09;;;;;;;5.65;2.47;;;;;;;25.95;57.43;99881.88;5112730;28;20130;-66
2023/07/30 08:29:37;;;;;;;6.20;2.50;;;;;;;25.96;57.26;99880.00;5112061;28;20048;-68
2023/07/30 08:32:20;;;;;;;3.63;2.40;;;;;;;25.95;57.26;99878.31;5092073;28;20044;-64
2023/07/30 08:35:07;;;;;;;4.80;2.50;;;;;;;25.95;57.59;99884.63;5091753;28;20122;-66
2023/07/30 08:37:35;;;;;;;4.20;2.35;;;;;;;25.95;57.43;99894.69;5071245;28;20136;-66
2023/07/30 08:40:06;;;;;;;4.00;2.20;;;;;;;25.94;57.72;99884.81;5071512;28;20044;-66
2023/07/30 08:42:34;;;;;;;4.35;2.17;;;;;;;25.94;57.77;99895.75;5070351;28;20051;-67
2023/07/30 08:45:06;;;;;;;3.92;2.28;;;;;;;25.93;57.77;99903.09;5071312;28;20091;-66
2023/07/30 08:47:35;;;;;;;4.38;2.00;;;;;;;25.90;57.44;99892.59;5071000;28;20071;-63
2023/07/30 08:50:04;;;;;;;5.13;2.40;;;;;;;25.91;57.39;99896.16;5079305;28;20055;-68
2023/07/30 08:52:36;;;;;;;3.83;2.13;;;;;;;25.90;57.91;99891.75;5091017;28;20059;-64
2023/07/30 08:55:07;;;;;;;3.20;2.00;;;;;;;25.90;57.63;99889.84;5090934;28;20523;-67
2023/07/30 08:57:36;;;;;;;3.85;2.17;;;;;;;25.90;58.01;99889.84;5090507;28;20047;-66
2023/07/30 09:00:09;;;;;;;3.78;2.20;;;;;;;25.88;58.55;99891.09;5070899;28;20052;-65
2023/07/30 09:02:40;;;;;;;3.65;2.20;;;;;;;25.87;58.62;99889.41;5070998;28;20048;-64
2023/07/30 09:05:09;;;;;;;3.72;2.30;;;;;;;25.85;58.60;99891.47;5071360;28;20102;-64
2023/07/30 09:07:38;;;;;;;4.03;2.08;;;;;;;25.86;58.56;99884.97;5076383;28;20130;-64
2023/07/30 09:10:08;;;;;;;4.68;2.20;;;;;;;25.85;58.87;99875.09;5091060;28;20167;-64
2023/07/30 09:12:39;;;;;;;4.20;2.30;;;;;;;25.83;59.07;99883.50;5091066;28;20044;-64
2023/07/30 09:15:09;;;;;;;3.58;2.03;;;;;;;25.81;59.37;99887.47;5091879;28;20054;-66
2023/07/30 09:17:37;;;;;;;4.05;2.33;;;;;;;25.79;59.30;99892.31;5091516;28;20044;-65
2023/07/30 09:20:07;;;;;;;5.07;2.33;;;;;;;25.78;59.46;99886.00;5091269;28;20105;-66
2023/07/30 09:22:40;;;;;;;4.00;2.38;;;;;;;25.79;59.37;99881.38;5091692;28;20066;-65
2023/07/30 09:25:11;;;;;;;5.60;2.35;;;;;;;25.81;59.41;99879.28;5089381;28;20059;-65
2023/07/30 09:27:39;;;;;;;10.38;3.85;;;;;;;25.82;59.11;99886.44;5091123;28;20048;-66
2023/07/30 09:30:08;;;;;;;7.78;3.08;;;;;;;25.83;58.88;99872.56;5091721;28;20097;-66
2023/07/30 09:32:37;;;;;;;9.10;3.50;;;;;;;25.85;58.60;99877.81;5091389;28;20443;-66
2023/07/30 09:35:07;;;;;;;13.60;3.67;;;;;;;25.86;58.67;99882.25;5073552;28;20495;-66
2023/07/30 09:37:38;;;;;;;11.27;4.22;;;;;;;25.87;58.11;99873.03;5091242;28;20105;-66
2023/07/30 09:40:08;;;;;;;14.30;4.97;;;;;;;25.88;57.89;99880.19;5091454;28;20416;-65
2023/07/30 09:42:39;;;;;;;16.38;5.25;;;;;;;25.88;57.96;99880.19;5091446;28;20044;-65
2023/07/30 09:45:17;;;;;;;14.23;5.30;;;;;;;25.90;58.22;99878.09;5091327;28;20048;-66
2023/07/30 09:47:49;;;;;;;13.85;4.97;;;;;;;25.91;57.75;99885.22;5091215;28;20075;-65
2023/07/30 09:50:17;;;;;;;14.10;5.10;;;;;;;25.89;57.65;99877.25;5091114;28;20054;-65
2023/07/30 09:52:46;;;;;;;12.98;5.07;;;;;;;25.90;57.59;99878.94;5074360;28;20484;-63
2023/07/30 09:55:18;;;;;;;13.95;4.60;;;;;;;25.92;57.80;99875.97;5094603;28;20056;-65
2023/07/30 09:57:48;;;;;;;10.85;4.32;;;;;;;25.92;57.46;99870.53;5095063;28;20051;-64
2023/07/30 10:00:16;;;;;;;11.82;4.60;;;;;;;25.91;57.58;99880.59;5095007;28;20055;-65
2023/07/30 10:02:48;;;;;;;11.23;4.60;;;;;;;25.92;57.23;99875.97;5094929;28;20167;-65
2023/07/30 10:05:20;;;;;;;12.32;4.53;;;;;;;25.93;57.30;99872.22;5095338;28;20105;-65
2023/07/30 10:07:51;;;;;;;;;;;;;;;25.93;57.21;99883.13;5095497;28;20050;-65
2023/07/30 10:10:20;;;;;;;11.43;4.88;;;;;;;25.94;57.05;99884.81;5094648;28;19981;-65
2023/07/30 10:12:52;;;;;;;13.30;4.45;;;;;;;25.94;57.04;99884.81;5094796;28;20248;-65
2023/07/30 10:15:23;;;;;;;14.40;4.43;;;;;;;25.94;56.97;99871.16;5094676;28;20044;-66
2023/07/30 10:17:52;;;;;;;13.82;5.00;;;;;;;25.95;57.49;99875.56;5094993;28;20056;-65
2023/07/30 10:20:25;;;;;;;11.93;4.32;;;;;;;25.95;57.16;99876.41;5094659;28;20071;-66
2023/07/30 10:22:54;;;;;;;11.70;5.22;;;;;;;25.95;57.38;99881.88;5094862;28;20044;-65
2023/07/30 10:25:24;;;;;;;11.15;4.55;;;;;;;25.97;57.52;99878.97;5094714;28;20200;-66
2023/07/30 10:27:53;;;;;;;10.15;4.50;;;;;;;25.96;56.86;99885.44;5094554;28;20048;-65
2023/07/30 10:30:22;;;;;;;10.05;3.75;;;;;;;25.98;57.12;99886.13;5094395;28;20059;-66
2023/07/30 10:33:04;;;;;;;10.63;4.13;;;;;;;25.97;57.21;99878.97;5094639;28;20044;-65
2023/07/30 10:35:45;;;;;;;11.50;4.57;;;;;;;25.98;57.17;99874.34;5094456;28;20052;-65
2023/07/30 10:38:17;;;;;;;9.73;4.43;;;;;;;26.00;57.04;99877.72;5094039;28;20056;-65
2023/07/30 10:41:02;;;;;;;9.93;4.32;;;;;;;25.98;56.89;99875.19;5094346;28;20101;-65
2023/07/30 10:43:34;;;;;;;10.10;4.47;;;;;;;25.98;57.18;99879.81;5094273;28;20139;-64
2023/07/30 10:46:03;;;;;;;;;;;;;;;25.98;56.99;99872.47;5094716;28;20075;-65
2023/07/30 10:48:34;;;;;;;13.25;4.60;;;;;;;25.98;56.83;99869.72;5093899;28;20431;-65
2023/07/30 10:51:05;;;;;;;11.00;4.57;;;;;;;26.00;56.72;99870.38;5094425;28;20408;-66
2023/07/30 10:53:35;;;;;;;12.60;4.75;;;;;;;26.00;56.71;99864.91;5094226;28;20131;-66
2023/07/30 10:56:05;;;;;;;11.43;4.53;;;;;;;26.00;56.83;99862.16;5093965;28;20087;-65
2023/07/30 10:58:36;;;;;;;12.20;4.53;;;;;;;26.01;57.05;99858.38;5093913;28;20485;-65
2023/07/30 11:01:05;;;;;;;11.52;4.38;;;;;;;26.00;56.91;99855.84;5093871;28;20078;-64
2023/07/30 11:03:34;;;;;;;10.93;4.30;;;;;;;26.01;56.84;99852.06;5093932;28;20121;-65
2023/07/30 11:06:03;;;;;;;10.50;4.57;;;;;;;26.01;56.74;99855.66;5093351;28;20059;-64
2023/07/30 11:08:39;;;;;;;11.60;4.60;;;;;;;26.01;56.51;99858.38;5093678;28;20546;-64
2023/07/30 11:11:09;;;;;;;16.38;4.95;;;;;;;26.01;56.74;99852.91;5094044;28;20350;-66
2023/07/30 11:13:40;;;;;;;10.05;4.63;;;;;;;26.04;56.52;99847.03;5093512;28;20472;-66
2023/07/30 11:16:10;;;;;;;13.02;4.90;;;;;;;26.04;56.29;99857.97;5093865;28;20056;-65
2023/07/30 11:18:39;;;;;;;11.40;4.70;;;;;;;26.04;56.55;99852.50;5093581;28;20440;-65
2023/07/30 11:21:09;;;;;;;10.27;4.38;;;;;;;26.06;56.36;99850.44;5093427;28;20538;-65
2023/07/30 11:23:41;;;;;;;11.55;4.25;;;;;;;26.07;56.58;99859.47;5093599;28;20040;-65
2023/07/30 11:26:13;;;;;;;9.82;4.35;;;;;;;26.06;56.70;99855.91;5093377;28;20108;-65
2023/07/30 11:28:47;;;;;;;11.05;4.50;;;;;;;26.08;56.57;99852.97;5093351;28;20091;-65
2023/07/30 11:31:20;;;;;;;9.75;4.50;;;;;;;26.08;56.59;99858.44;5093471;28;20048;-65
2023/07/30 11:33:51;;;;;;;11.88;4.57;;;;;;;26.07;56.61;99854.00;5093366;28;20075;-65
2023/07/30 11:36:22;;;;;;;12.73;4.47;;;;;;;26.07;56.74;99857.59;5093219;28;20090;-64
2023/07/30 11:38:53;;;;;;;11.48;4.30;;;;;;;26.08;56.31;99866.63;5093042;28;20131;-65
2023/07/30 11:41:23;;;;;;;9.60;4.25;;;;;;;26.05;56.58;99856.09;5093426;28;20130;-65
2023/07/30 11:43:53;;;;;;;11.88;4.50;;;;;;;26.07;56.25;99865.78;5093335;28;20071;-66
2023/07/30 11:46:22;;;;;;;8.48;4.03;;;;;;;26.08;56.17;99859.28;5093031;28;20044;-66